Time;durP1;ratioP1;P1;durP2;ratioP2;P2;SDS_P1;SDS_P2;PMS_P1;PMS_P2;Temp;Humidity;BMP_temperature;BMP_pressure;BME280_temperature;BME280_humidity;BME280_pressure;Samples;Min_cycle;Max_cycle;Signal;HPM_P1;HPM_P2
2022/06/19 00:01:09;;;;;;;21.88;8.65;;;;;;;;;;4984396;28;20042;-64
2022/06/19 00:03:43;;;;;;;13.45;7.00;;;;;;;;;;4983252;28;20026;-64
2022/06/19 00:06:09;;;;;;;17.05;7.38;;;;;;;;;;4983281;28;20511;-65
2022/06/19 00:08:34;;;;;;;12.60;7.38;;;;;;;;;;4982716;28;20038;-64
2022/06/19 00:11:01;;;;;;;17.58;7.32;;;;;;;;;;4986690;28;20042;-65
2022/06/19 00:13:27;;;;;;;13.85;7.43;;;;;;;;;;4983929;28;20070;-64
2022/06/19 00:15:54;;;;;;;13.88;6.93;;;;;;;;;;4984496;28;20045;-64
2022/06/19 00:18:20;;;;;;;15.15;6.95;;;;;;;;;;4982567;28;20030;-64
2022/06/19 00:20:45;;;;;;;12.43;6.78;;;;;;;;;;4986651;28;20366;-65
2022/06/19 00:23:11;;;;;;;14.00;7.72;;;;;;;;;;4983953;28;20503;-65
2022/06/19 00:25:37;;;;;;;17.17;7.07;;;;;;;;;;4984196;28;20389;-64
2022/06/19 00:28:04;;;;;;;11.45;7.53;;;;;;;;;;4983986;28;20105;-65
2022/06/19 00:30:30;;;;;;;9.40;6.93;;;;;;;;;;4984892;28;20033;-65
2022/06/19 00:32:58;;;;;;;13.35;6.85;;;;;;;;;;4983638;28;20026;-64
2022/06/19 00:35:29;;;;;;;15.77;6.90;;;;;;;;;;4983908;28;20149;-64
2022/06/19 00:37:55;;;;;;;13.80;6.97;;;;;;;;;;4984908;28;20042;-64
2022/06/19 00:40:22;;;;;;;10.25;6.85;;;;;;;;;;4986195;28;20099;-64
2022/06/19 00:42:47;;;;;;;14.38;6.97;;;;;;;;;;4985478;28;20063;-66
2022/06/19 00:45:39;;;;;;;10.80;6.75;;;;;;;;;;4982531;28;20070;-64
2022/06/19 00:48:15;;;;;;;13.95;6.90;;;;;;;;;;4986074;28;20038;-67
2022/06/19 00:50:43;;;;;;;16.65;7.13;;;;;;;;;;4983791;28;20046;-64
2022/06/19 00:53:13;;;;;;;17.77;6.93;;;;;;;;;;4983436;28;20031;-65
2022/06/19 00:55:42;;;;;;;13.05;6.53;;;;;;;;;;4985498;28;20481;-64
2022/06/19 00:58:16;;;;;;;11.63;6.55;;;;;;;;;;4984293;28;20038;-64
2022/06/19 01:00:42;;;;;;;9.52;6.28;;;;;;;;;;4982893;28;20041;-65
2022/06/19 01:03:16;;;;;;;11.07;6.90;;;;;;;;;;4983386;28;20146;-64
2022/06/19 01:05:44;;;;;;;12.05;6.85;;;;;;;;;;4995434;28;20047;-64
2022/06/19 01:08:11;;;;;;;15.47;7.00;;;;;;;;;;4983995;28;20069;-64
2022/06/19 01:10:42;;;;;;;17.65;7.03;;;;;;;;;;4979544;28;20034;-64
2022/06/19 01:13:10;;;;;;;11.85;6.40;;;;;;;;;;4983139;28;20056;-65
2022/06/19 01:15:38;;;;;;;11.68;6.20;;;;;;;;;;4982160;28;20084;-64
2022/06/19 01:18:06;;;;;;;13.18;6.60;;;;;;;;;;4982247;28;20387;-64
2022/06/19 01:20:33;;;;;;;14.57;7.57;;;;;;;;;;4982290;28;20078;-64
2022/06/19 01:23:04;;;;;;;7.80;6.70;;;;;;;;;;4979760;28;20026;-65
2022/06/19 01:25:32;;;;;;;11.55;6.72;;;;;;;;;;4983560;28;20620;-64
2022/06/19 01:30:53;;;;;;;13.90;7.25;;;;;;;;;;4983619;28;20034;-65
2022/06/19 01:33:23;;;;;;;14.45;6.80;;;;;;;;;;4982893;28;20066;-64
2022/06/19 01:35:52;;;;;;;10.75;6.80;;;;;;;;;;4980181;28;20026;-64
2022/06/19 01:38:20;;;;;;;10.02;7.40;;;;;;;;;;4982384;28;20240;-65
2022/06/19 01:40:53;;;;;;;15.40;6.80;;;;;;;;;;4984479;28;20038;-65
2022/06/19 01:43:20;;;;;;;13.70;6.50;;;;;;;;;;4979432;28;20697;-65
2022/06/19 01:45:52;;;;;;;11.80;7.03;;;;;;;;;;4983011;28;20062;-65
2022/06/19 01:48:20;;;;;;;11.73;6.60;;;;;;;;;;4982877;28;20579;-64
2022/06/19 01:50:46;;;;;;;15.18;7.53;;;;;;;;;;4982488;28;20069;-65
2022/06/19 01:53:43;;;;;;;13.82;6.72;;;;;;;;;;4980938;28;20046;-64
2022/06/19 01:56:11;;;;;;;12.52;7.13;;;;;;;;;;4924963;29;20051;-64
2022/06/19 01:58:40;;;;;;;8.82;6.65;;;;;;;;;;4924204;29;20035;-64
2022/06/19 02:01:07;;;;;;;10.07;6.85;;;;;;;;;;4927675;29;20051;-64
2022/06/19 02:03:44;;;;;;;14.25;7.50;;;;;;;;;;4926034;29;20102;-64
2022/06/19 02:06:12;;;;;;;13.23;6.82;;;;;;;;;;4923559;29;20048;-64
2022/06/19 02:08:39;;;;;;;13.82;6.78;;;;;;;;;;4927669;29;20050;-65
2022/06/19 02:11:06;;;;;;;10.93;6.43;;;;;;;;;;4926201;29;20044;-64
2022/06/19 02:13:34;;;;;;;11.80;7.32;;;;;;;;;;4919431;29;20187;-64
2022/06/19 02:16:04;;;;;;;15.05;6.88;;;;;;;;;;4923557;29;20051;-64
2022/06/19 02:18:34;;;;;;;11.90;6.93;;;;;;;;;;4926685;29;20479;-66
2022/06/19 02:21:00;;;;;;;16.27;6.75;;;;;;;;;;4927735;29;20052;-64
2022/06/19 02:23:31;;;;;;;10.50;6.80;;;;;;;;;;4930556;29;20063;-64
2022/06/19 02:25:57;;;;;;;10.73;7.03;;;;;;;;;;4928856;29;20063;-64
2022/06/19 02:28:23;;;;;;;12.40;6.78;;;;;;;;;;4931101;29;20495;-62
2022/06/19 02:30:48;;;;;;;21.30;7.30;;;;;;;;;;4929289;29;20049;-63
2022/06/19 02:33:18;;;;;;;10.50;6.68;;;;;;;;;;4973074;28;20047;-63
2022/06/19 02:35:44;;;;;;;11.70;6.85;;;;;;;;;;4987567;28;20149;-63
2022/06/19 02:38:16;;;;;;;13.52;6.88;;;;;;;;;;4984170;28;20038;-63
2022/06/19 02:41:05;;;;;;;11.82;7.00;;;;;;;;;;4981481;28;20035;-63
2022/06/19 02:43:35;;;;;;;12.38;6.80;;;;;;;;;;4988395;28;20118;-62
2022/06/19 02:46:06;;;;;;;11.65;6.60;;;;;;;;;;4981358;28;20477;-63
2022/06/19 02:48:32;;;;;;;18.38;6.93;;;;;;;;;;4983486;28;20059;-63
2022/06/19 02:51:00;;;;;;;17.85;6.97;;;;;;;;;;4981822;28;20030;-63
2022/06/19 02:53:27;;;;;;;13.70;7.07;;;;;;;;;;4988185;28;20034;-63
2022/06/19 02:55:54;;;;;;;11.25;6.85;;;;;;;;;;4977182;28;20904;-63
2022/06/19 02:58:20;;;;;;;12.65;7.65;;;;;;;;;;4982798;28;20038;-63
2022/06/19 03:00:51;;;;;;;9.27;6.72;;;;;;;;;;4982091;28;20034;-63
2022/06/19 03:03:29;;;;;;;13.70;7.07;;;;;;;;;;4981269;28;20090;-63
2022/06/19 03:05:54;;;;;;;10.40;7.03;;;;;;;;;;4981308;28;20092;-63
2022/06/19 03:08:20;;;;;;;12.75;7.10;;;;;;;;;;4988091;28;20050;-63
2022/06/19 03:10:47;;;;;;;11.70;6.90;;;;;;;;;;4987398;28;20753;-63
2022/06/19 03:13:12;;;;;;;11.02;6.72;;;;;;;;;;4981969;28;20042;-63
2022/06/19 03:15:38;;;;;;;14.40;6.93;;;;;;;;;;4983207;28;20030;-63
2022/06/19 03:18:04;;;;;;;10.98;6.82;;;;;;;;;;4984665;28;20073;-63
2022/06/19 03:20:30;;;;;;;9.70;7.10;;;;;;;;;;4984856;28;20050;-63
2022/06/19 03:22:55;;;;;;;14.73;7.15;;;;;;;;;;4981950;28;20022;-63
2022/06/19 03:25:22;;;;;;;16.58;7.55;;;;;;;;;;4982401;28;20416;-63
2022/06/19 03:27:48;;;;;;;8.70;6.65;;;;;;;;;;4987329;28;20038;-63
2022/06/19 03:30:16;;;;;;;10.60;6.90;;;;;;;;;;4982758;28;20040;-63
2022/06/19 03:32:41;;;;;;;14.23;7.30;;;;;;;;;;4974830;28;20386;-63
2022/06/19 03:35:08;;;;;;;11.15;6.80;;;;;;;;;;4984174;28;20049;-63
2022/06/19 03:37:34;;;;;;;16.25;7.43;;;;;;;;;;4985403;28;20501;-63
2022/06/19 03:39:59;;;;;;;10.50;6.80;;;;;;;;;;4987036;28;20545;-65
2022/06/19 03:42:25;;;;;;;18.77;7.18;;;;;;;;;;4982361;28;20109;-63
2022/06/19 03:44:51;;;;;;;15.75;7.10;;;;;;;;;;4979635;28;20058;-63
2022/06/19 03:47:22;;;;;;;14.43;6.60;;;;;;;;;;4983506;28;20449;-63
2022/06/19 03:49:49;;;;;;;14.20;6.90;;;;;;;;;;4978905;28;20043;-63
2022/06/19 03:52:14;;;;;;;11.63;6.95;;;;;;;;;;4980360;28;20049;-63
2022/06/19 03:54:40;;;;;;;14.70;7.78;;;;;;;;;;4980325;28;20034;-63
2022/06/19 03:57:06;;;;;;;12.70;6.88;;;;;;;;;;4982585;28;20166;-63
2022/06/19 03:59:32;;;;;;;12.52;6.80;;;;;;;;;;4981673;28;20065;-63
2022/06/19 04:01:58;;;;;;;17.60;6.35;;;;;;;;;;4982591;28;20058;-63
2022/06/19 04:04:23;;;;;;;11.90;6.57;;;;;;;;;;4985340;28;20606;-63
2022/06/19 04:06:49;;;;;;;13.90;6.85;;;;;;;;;;4981259;28;20443;-63
2022/06/19 04:09:17;;;;;;;11.00;7.35;;;;;;;;;;4979944;28;20158;-63
2022/06/19 04:11:43;;;;;;;10.05;6.88;;;;;;;;;;4979262;28;20034;-64
2022/06/19 04:14:10;;;;;;;9.05;6.90;;;;;;;;;;4980937;28;20046;-63
2022/06/19 04:16:36;;;;;;;12.43;7.15;;;;;;;;;;4975985;28;20038;-63
2022/06/19 04:19:04;;;;;;;15.20;6.90;;;;;;;;;;4983239;28;20042;-63
2022/06/19 04:21:32;;;;;;;13.05;6.43;;;;;;;;;;4984506;28;20041;-63
2022/06/19 04:24:00;;;;;;;15.80;7.03;;;;;;;;;;4978690;28;20022;-63
2022/06/19 04:26:29;;;;;;;19.67;7.50;;;;;;;;;;4983471;28;20030;-63
2022/06/19 04:28:55;;;;;;;9.90;6.65;;;;;;;;;;4977996;28;20062;-63
2022/06/19 04:31:21;;;;;;;10.77;7.40;;;;;;;;;;4979957;28;20516;-63
2022/06/19 04:33:46;;;;;;;12.40;7.47;;;;;;;;;;4978355;28;20081;-63
2022/06/19 04:36:16;;;;;;;10.85;6.75;;;;;;;;;;4976706;28;20121;-63
2022/06/19 04:38:43;;;;;;;11.35;7.05;;;;;;;;;;4983351;28;20042;-63
2022/06/19 04:41:18;;;;;;;14.00;6.35;;;;;;;;;;4981223;28;20038;-63
2022/06/19 04:43:44;;;;;;;14.40;7.28;;;;;;;;;;4983423;28;20038;-63
2022/06/19 04:46:10;;;;;;;11.90;6.97;;;;;;;;;;4978260;28;20070;-63
2022/06/19 04:48:37;;;;;;;13.75;6.82;;;;;;;;;;4983309;28;20042;-63
2022/06/19 04:51:02;;;;;;;13.18;7.15;;;;;;;;;;4984556;28;20034;-63
2022/06/19 04:53:28;;;;;;;9.60;6.90;;;;;;;;;;4982691;28;20053;-63
2022/06/19 04:55:54;;;;;;;15.65;6.95;;;;;;;;;;4981557;28;20030;-63
2022/06/19 04:58:22;;;;;;;12.15;6.90;;;;;;;;;;4982700;28;20519;-64
2022/06/19 05:00:52;;;;;;;19.50;7.47;;;;;;;;;;4984965;28;20046;-64
2022/06/19 05:03:19;;;;;;;8.20;6.85;;;;;;;;;;4983722;28;20034;-63
2022/06/19 05:05:46;;;;;;;18.73;7.10;;;;;;;;;;4983425;28;20105;-65
2022/06/19 05:08:12;;;;;;;10.82;6.93;;;;;;;;;;4980499;28;20398;-65
2022/06/19 05:10:38;;;;;;;8.48;7.05;;;;;;;;;;4981413;28;20504;-65
2022/06/19 05:13:06;;;;;;;14.10;7.15;;;;;;;;;;4982699;28;20436;-64
2022/06/19 05:15:32;;;;;;;11.20;6.80;;;;;;;;;;4983009;28;20039;-65
2022/06/19 05:17:58;;;;;;;11.25;6.90;;;;;;;;;;4976706;28;20121;-64
2022/06/19 05:20:24;;;;;;;12.18;7.80;;;;;;;;;;4981997;28;20532;-65
2022/06/19 05:22:49;;;;;;;18.48;6.82;;;;;;;;;;4984779;28;20031;-65
2022/06/19 05:25:15;;;;;;;12.65;7.45;;;;;;;;;;4982551;28;20498;-65
2022/06/19 05:27:41;;;;;;;10.38;7.00;;;;;;;;;;4976557;28;20041;-65
2022/06/19 05:30:10;;;;;;;11.80;7.32;;;;;;;;;;4980028;28;20170;-65
2022/06/19 05:32:35;;;;;;;11.95;7.03;;;;;;;;;;4981532;28;20109;-65
2022/06/19 05:35:01;;;;;;;11.50;7.18;;;;;;;;;;4980969;28;20109;-65
2022/06/19 05:37:27;;;;;;;11.35;7.30;;;;;;;;;;4977859;28;20043;-65
2022/06/19 05:39:52;;;;;;;12.40;7.28;;;;;;;;;;4982847;28;20109;-65
2022/06/19 05:42:18;;;;;;;14.90;7.40;;;;;;;;;;4978001;28;20042;-65
2022/06/19 05:44:44;;;;;;;12.77;7.30;;;;;;;;;;4980105;28;20090;-65
2022/06/19 05:47:10;;;;;;;15.90;7.57;;;;;;;;;;4980565;28;20392;-65
2022/06/19 05:49:36;;;;;;;13.82;7.45;;;;;;;;;;4986406;28;20037;-65
2022/06/19 05:52:03;;;;;;;11.50;6.82;;;;;;;;;;4979843;28;20042;-64
2022/06/19 05:54:29;;;;;;;14.32;7.05;;;;;;;;;;4979132;28;20039;-65
2022/06/19 05:56:55;;;;;;;9.88;7.40;;;;;;;;;;4984314;28;20041;-65
2022/06/19 05:59:21;;;;;;;11.18;7.70;;;;;;;;;;4987465;28;20038;-65
2022/06/19 06:01:47;;;;;;;14.25;7.10;;;;;;;;;;4983045;28;20061;-65
2022/06/19 06:04:12;;;;;;;12.93;7.28;;;;;;;;;;4984031;28;20092;-65
2022/06/19 06:06:40;;;;;;;16.70;8.40;;;;;;;;;;4983979;28;20026;-65
2022/06/19 06:09:06;;;;;;;14.68;8.00;;;;;;;;;;4987145;28;20038;-66
2022/06/19 06:11:32;;;;;;;9.30;6.93;;;;;;;;;;4985070;28;20114;-65
2022/06/19 06:13:58;;;;;;;8.88;6.95;;;;;;;;;;4981944;28;20041;-65
2022/06/19 06:16:23;;;;;;;13.05;7.05;;;;;;;;;;4987003;28;20035;-65
2022/06/19 06:18:50;;;;;;;13.57;7.55;;;;;;;;;;4983836;28;20145;-65
2022/06/19 06:21:22;;;;;;;11.50;6.47;;;;;;;;;;4987223;28;20055;-65
2022/06/19 06:23:48;;;;;;;9.55;6.80;;;;;;;;;;4982426;28;20117;-64
2022/06/19 06:26:17;;;;;;;13.55;7.20;;;;;;;;;;4986662;28;20038;-64
2022/06/19 06:28:45;;;;;;;17.48;7.40;;;;;;;;;;4984405;28;20401;-64
2022/06/19 06:31:11;;;;;;;14.50;6.95;;;;;;;;;;4982766;28;20043;-64
2022/06/19 06:33:37;;;;;;;11.07;6.95;;;;;;;;;;4984285;28;20034;-65
2022/06/19 06:36:04;;;;;;;9.60;6.57;;;;;;;;;;4986335;28;20066;-64
2022/06/19 06:38:29;;;;;;;12.15;6.93;;;;;;;;;;4984560;28;20476;-64
2022/06/19 06:40:55;;;;;;;11.68;6.88;;;;;;;;;;4986763;28;20038;-64
2022/06/19 06:43:22;;;;;;;13.90;7.18;;;;;;;;;;4981547;28;20031;-64
2022/06/19 06:45:48;;;;;;;10.30;6.72;;;;;;;;;;4984672;28;20047;-64
2022/06/19 06:48:15;;;;;;;9.48;7.22;;;;;;;;;;4983391;28;20436;-64
2022/06/19 06:50:41;;;;;;;14.23;7.45;;;;;;;;;;4987706;28;20090;-64
2022/06/19 06:53:08;;;;;;;11.70;7.13;;;;;;;;;;4987893;28;20030;-64
2022/06/19 06:55:41;;;;;;;12.65;7.10;;;;;;;;;;4983246;28;20027;-64
2022/06/19 06:58:07;;;;;;;13.35;7.03;;;;;;;;;;4984486;28;20450;-64
2022/06/19 07:00:33;;;;;;;19.10;7.13;;;;;;;;;;4984591;28;20061;-66
2022/06/19 07:02:59;;;;;;;11.25;7.30;;;;;;;;;;4985609;28;20036;-64
2022/06/19 07:05:26;;;;;;;14.63;7.18;;;;;;;;;;4983577;28;20034;-64
2022/06/19 07:07:52;;;;;;;19.70;7.85;;;;;;;;;;4982780;28;20030;-64
2022/06/19 07:10:19;;;;;;;10.38;7.20;;;;;;;;;;4983559;28;20446;-65
2022/06/19 07:12:45;;;;;;;14.95;7.50;;;;;;;;;;4985432;28;20601;-65
2022/06/19 07:15:11;;;;;;;15.18;7.30;;;;;;;;;;4984332;28;20038;-65
2022/06/19 07:17:37;;;;;;;20.33;7.88;;;;;;;;;;5003411;22;20480;-64
2022/06/19 07:20:04;;;;;;;13.10;7.07;;;;;;;;;;5043588;28;20043;-66
2022/06/19 07:22:29;;;;;;;16.23;7.10;;;;;;;;;;5041335;28;20033;-65
2022/06/19 07:24:55;;;;;;;12.57;7.13;;;;;;;;;;5051466;28;20170;-67
2022/06/19 07:27:22;;;;;;;12.95;7.57;;;;;;;;;;5047796;28;20036;-65
2022/06/19 07:29:47;;;;;;;14.85;7.10;;;;;;;;;;5041939;28;20049;-66
2022/06/19 07:32:13;;;;;;;15.15;7.65;;;;;;;;;;5048161;28;20033;-66
2022/06/19 07:34:41;;;;;;;11.70;6.82;;;;;;;;;;5046250;28;20029;-65
2022/06/19 07:37:07;;;;;;;14.82;7.07;;;;;;;;;;5042287;28;20040;-66
2022/06/19 07:39:34;;;;;;;14.80;7.03;;;;;;;;;;5048984;28;20032;-66
2022/06/19 07:42:01;;;;;;;11.43;7.50;;;;;;;;;;5051255;28;20033;-65
2022/06/19 07:44:27;;;;;;;10.18;7.20;;;;;;;;;;5049133;28;20036;-65
2022/06/19 07:52:21;;;;;;;16.30;7.55;;;;;;;;;;5047122;28;20040;-67
2022/06/19 07:54:48;;;;;;;11.63;6.88;;;;;;;;;;5042176;28;20033;-67
2022/06/19 07:57:13;;;;;;;13.82;6.75;;;;;;;;;;5044940;28;20070;-66
2022/06/19 07:59:39;;;;;;;15.95;7.28;;;;;;;;;;5044568;22;20034;-67
2022/06/19 08:02:05;;;;;;;15.65;6.90;;;;;;;;;;5021585;28;20041;-67
2022/06/19 08:04:31;;;;;;;13.40;7.38;;;;;;;;;;5018031;28;20720;-67
2022/06/19 08:06:56;;;;;;;11.13;7.00;;;;;;;;;;5018810;28;20041;-67
2022/06/19 08:09:22;;;;;;;15.48;7.60;;;;;;;;;;5023643;28;20044;-67
2022/06/19 08:11:47;;;;;;;13.20;7.05;;;;;;;;;;5022620;28;20033;-66
2022/06/19 08:14:13;;;;;;;13.65;7.03;;;;;;;;;;5020809;28;20713;-65
2022/06/19 08:16:38;;;;;;;14.32;7.18;;;;;;;;;;5022766;28;20641;-67
2022/06/19 08:19:04;;;;;;;12.30;6.82;;;;;;;;;;5023267;28;20499;-66
2022/06/19 08:21:30;;;;;;;10.77;6.82;;;;;;;;;;5023314;28;20121;-66
2022/06/19 08:23:55;;;;;;;12.27;7.32;;;;;;;;;;5022487;28;20025;-66
2022/06/19 08:26:21;;;;;;;12.32;7.32;;;;;;;;;;5021477;28;20044;-66
2022/06/19 08:29:00;;;;;;;15.38;7.65;;;;;;;;;;5023657;28;20041;-65
2022/06/19 08:31:27;;;;;;;14.07;7.82;;;;;;;;;;5020320;28;20037;-64
2022/06/19 08:33:53;;;;;;;12.70;7.43;;;;;;;;;;5023187;28;20064;-67
2022/06/19 08:36:19;;;;;;;15.43;7.60;;;;;;;;;;5021183;28;20033;-66
2022/06/19 08:38:49;;;;;;;16.92;7.47;;;;;;;;;;5020844;28;20090;-66
2022/06/19 08:41:22;;;;;;;14.85;7.30;;;;;;;;;;5021617;28;20072;-66
2022/06/19 08:44:04;;;;;;;18.00;8.23;;;;;;;;;;5023110;28;20034;-66
2022/06/19 08:47:08;;;;;;;13.18;7.55;;;;;;;;;;5022042;28;20041;-66
2022/06/19 08:49:49;;;;;;;13.93;7.95;;;;;;;;;;5022871;28;20038;-66
2022/06/19 08:52:30;;;;;;;11.75;7.05;;;;;;;;;;5022779;28;20037;-66
2022/06/19 08:55:10;;;;;;;16.13;7.55;;;;;;;;;;5018402;28;20041;-66
2022/06/19 08:57:41;;;;;;;14.80;7.90;;;;;;;;;;5021263;28;20036;-66
2022/06/19 09:00:13;;;;;;;13.68;8.30;;;;;;;;;;5021574;28;20124;-67
2022/06/19 09:02:52;;;;;;;13.38;7.38;;;;;;;;;;5022303;28;20071;-66
2022/06/19 09:05:46;;;;;;;15.68;7.90;;;;;;;;;;5017257;28;20409;-75
2022/06/19 09:08:47;;;;;;;15.25;7.78;;;;;;;;;;5023939;28;20053;-71
2022/06/19 09:11:15;;;;;;;20.67;8.32;;;;;;;;;;5020566;28;20041;-71
2022/06/19 09:13:47;;;;;;;16.90;8.18;;;;;;;;;;5018340;28;20512;-70
2022/06/19 09:16:40;;;;;;;13.98;8.25;;;;;;;;;;5020685;28;20064;-69
2022/06/19 09:19:10;;;;;;;11.02;8.02;;;;;;;;;;5019872;28;20115;-68
2022/06/19 09:22:11;;;;;;;13.65;9.07;;;;;;;;;;5020342;28;20025;-68
2022/06/19 09:24:43;;;;;;;14.65;8.65;;;;;;;;;;5020818;28;20041;-67
2022/06/19 09:27:11;;;;;;;9.52;7.93;;;;;;;;;;5017094;28;20044;-68
2022/06/19 09:29:47;;;;;;;15.85;9.07;;;;;;;;;;5018367;28;20041;-68
2022/06/19 09:32:25;;;;;;;18.95;10.20;;;;;;;;;;5019221;28;20052;-68
2022/06/19 09:35:12;;;;;;;13.75;9.60;;;;;;;;;;5022937;28;20030;-69
2022/06/19 09:38:03;;;;;;;15.67;9.97;;;;;;;;;;5011514;28;20037;-69
2022/06/19 09:40:31;;;;;;;16.40;10.07;;;;;;;;;;5016058;28;20041;-67
2022/06/19 09:43:01;;;;;;;12.55;9.98;;;;;;;;;;5018877;28;20047;-67
2022/06/19 09:46:02;;;;;;;13.82;9.18;;;;;;;;;;5012077;28;20156;-67
2022/06/19 09:48:31;;;;;;;12.25;9.60;;;;;;;;;;4985390;28;20135;-68
2022/06/19 09:51:19;;;;;;;12.07;10.35;;;;;;;;;;5016966;28;20033;-68
2022/06/19 09:53:58;;;;;;;17.20;11.13;;;;;;;;;;5019843;28;20033;-67
2022/06/19 09:56:33;;;;;;;15.52;10.55;;;;;;;;;;5018714;28;20073;-66
2022/06/19 09:59:09;;;;;;;24.27;10.52;;;;;;;;;;5017276;28;20629;-67
2022/06/19 10:01:36;;;;;;;15.50;9.27;;;;;;;;;;5013390;28;20065;-69
2022/06/19 10:04:07;;;;;;;14.73;9.50;;;;;;;;;;5016058;28;20126;-69
2022/06/19 10:06:36;;;;;;;13.07;9.20;;;;;;;;;;5020074;28;20029;-67
2022/06/19 10:09:32;;;;;;;20.45;10.35;;;;;;;;;;5011626;28;20049;-68
2022/06/19 10:12:00;;;;;;;15.48;9.80;;;;;;;;;;4956228;28;20043;-68
2022/06/19 10:14:38;;;;;;;10.73;9.70;;;;;;;;;;4958938;28;20093;-69
2022/06/19 10:17:25;;;;;;;17.67;9.35;;;;;;;;;;4959511;28;20038;-66
2022/06/19 10:20:12;;;;;;;15.07;9.57;;;;;;;;;;4962172;28;20042;-68
2022/06/19 10:22:59;;;;;;;14.23;10.05;;;;;;;;;;4961601;28;20047;-68
2022/06/19 10:25:50;;;;;;;14.60;9.15;;;;;;;;;;4962781;28;20051;-68
2022/06/19 10:28:42;;;;;;;13.73;8.77;;;;;;;;;;4963777;28;20047;-67
2022/06/19 10:31:22;;;;;;;14.88;9.35;;;;;;;;;;4958686;28;20043;-67
2022/06/19 10:33:48;;;;;;;18.77;8.95;;;;;;;;;;4959042;28;20166;-68
2022/06/19 10:36:28;;;;;;;20.23;9.48;;;;;;;;;;4966157;28;20425;-68
2022/06/19 10:39:16;;;;;;;18.35;8.63;;;;;;;;;;4963516;28;20031;-68
2022/06/19 10:42:05;;;;;;;13.57;8.07;;;;;;;;;;4958857;28;20038;-67
2022/06/19 10:44:49;;;;;;;16.55;8.82;;;;;;;;;;4962444;28;20399;-67
2022/06/19 10:47:43;;;;;;;13.38;8.18;;;;;;;;;;4960610;28;20047;-67
2022/06/19 10:50:20;;;;;;;15.13;7.82;;;;;;;;;;5015640;28;20154;-68
2022/06/19 10:53:21;;;;;;;21.15;8.45;;;;;;;;;;5020153;28;20091;-67
2022/06/19 10:56:02;;;;;;;15.18;7.85;;;;;;;;;;5019927;28;20392;-67
2022/06/19 10:58:30;;;;;;;15.35;8.30;;;;;;;;;;5023134;28;20033;-67
2022/06/19 11:00:59;;;;;;;14.82;8.18;;;;;;;;;;5022468;28;20037;-68
2022/06/19 11:06:37;;;;;;;18.90;8.00;;;;;;;;;;5021345;28;20087;-68
2022/06/19 11:09:34;;;;;;;16.13;7.93;;;;;;;;;;5023404;28;20045;-68
2022/06/19 11:12:17;;;;;;;14.02;7.80;;;;;;;;;;5019788;28;20053;-68
2022/06/19 11:14:54;;;;;;;19.05;8.02;;;;;;;;;;5020457;28;20038;-68
2022/06/19 11:17:40;;;;;;;17.27;7.97;;;;;;;;;;5021671;28;20144;-67
2022/06/19 11:20:26;;;;;;;14.13;7.15;;;;;;;;;;5021562;28;20033;-67
2022/06/19 11:23:03;;;;;;;12.93;7.20;;;;;;;;;;5020258;28;20056;-68
2022/06/19 11:25:33;;;;;;;12.90;7.37;;;;;;;;;;5023171;28;20037;-68
2022/06/19 11:28:03;;;;;;;14.48;7.65;;;;;;;;;;5019418;28;20324;-68
2022/06/19 11:30:37;;;;;;;17.00;7.88;;;;;;;;;;5019645;28;20037;-68
2022/06/19 11:33:07;;;;;;;12.02;7.90;;;;;;;;;;5019916;28;20571;-67
2022/06/19 11:35:43;;;;;;;18.88;7.53;;;;;;;;;;5020178;28;20582;-68
2022/06/19 11:38:11;;;;;;;12.48;7.25;;;;;;;;;;5018971;28;20048;-68
2022/06/19 11:40:41;;;;;;;16.15;8.10;;;;;;;;;;5023589;28;20479;-68
2022/06/19 11:43:26;;;;;;;13.25;7.18;;;;;;;;;;5022775;28;20029;-68
2022/06/19 11:46:01;;;;;;;12.75;7.43;;;;;;;;;;5019499;28;20080;-68
2022/06/19 11:48:27;;;;;;;15.60;7.10;;;;;;;;;;5019000;28;20049;-68
2022/06/19 11:50:54;;;;;;;17.25;7.82;;;;;;;;;;5022526;28;20034;-68
2022/06/19 11:53:35;;;;;;;12.10;6.70;;;;;;;;;;5020700;28;20129;-68
2022/06/19 11:56:22;;;;;;;11.82;7.53;;;;;;;;;;5018792;28;20583;-68
2022/06/19 11:59:00;;;;;;;15.85;7.72;;;;;;;;;;5020979;28;20026;-68
2022/06/19 12:01:43;;;;;;;13.32;7.63;;;;;;;;;;5020334;28;20574;-68
2022/06/19 12:04:37;;;;;;;17.70;7.10;;;;;;;;;;5019421;28;20037;-68
2022/06/19 12:07:16;;;;;;;13.02;7.85;;;;;;;;;;5022970;28;20104;-68
2022/06/19 12:09:52;;;;;;;17.55;7.55;;;;;;;;;;5022503;28;20049;-68
2022/06/19 12:12:20;;;;;;;20.98;7.72;;;;;;;;;;5024928;28;20037;-68
2022/06/19 12:15:21;;;;;;;16.85;7.13;;;;;;;;;;5014432;28;20596;-68
2022/06/19 12:17:47;;;;;;;21.38;7.70;;;;;;;;;;5023031;28;20037;-68
2022/06/19 12:20:12;;;;;;;16.00;8.10;;;;;;;;;;5018953;28;20491;-68
2022/06/19 12:22:53;;;;;;;18.33;7.82;;;;;;;;;;5015722;28;20171;-68
2022/06/19 12:25:25;;;;;;;14.07;7.03;;;;;;;;;;5015467;28;20049;-68
2022/06/19 12:28:04;;;;;;;18.58;7.78;;;;;;;;;;5014639;28;20516;-68
2022/06/19 12:30:53;;;;;;;15.05;7.30;;;;;;;;;;5019639;28;20038;-68
2022/06/19 12:33:50;;;;;;;18.42;6.97;;;;;;;;;;5015530;28;20723;-68
2022/06/19 12:36:22;;;;;;;15.27;7.28;;;;;;;;;;5017434;28;20044;-68
2022/06/19 12:38:50;;;;;;;14.57;7.85;;;;;;;;;;5018388;28;20030;-69
2022/06/19 12:41:21;;;;;;;14.23;6.88;;;;;;;;;;5016439;28;20033;-69
2022/06/19 12:44:09;;;;;;;14.15;6.82;;;;;;;;;;5020619;28;20092;-69
2022/06/19 12:47:01;;;;;;;11.15;7.20;;;;;;;;;;5017475;28;20767;-69
2022/06/19 12:49:37;;;;;;;15.65;7.13;;;;;;;;;;5020470;28;20037;-69
2022/06/19 12:52:11;;;;;;;18.02;7.57;;;;;;;;;;5021616;28;20103;-69
2022/06/19 12:54:49;;;;;;;13.52;7.40;;;;;;;;;;5015797;28;20034;-69
2022/06/19 12:57:14;;;;;;;11.82;6.90;;;;;;;;;;5018608;28;20427;-69
2022/06/19 13:00:07;;;;;;;13.60;7.47;;;;;;;;;;5019957;28;20030;-69
2022/06/19 13:03:17;;;;;;;13.95;7.85;;;;;;;;;;5020257;28;20037;-69
2022/06/19 13:06:01;;;;;;;14.30;7.03;;;;;;;;;;5015418;28;20036;-69
2022/06/19 13:08:51;;;;;;;13.18;7.30;;;;;;;;;;5020904;28;20430;-69
2022/06/19 13:11:52;;;;;;;21.15;7.22;;;;;;;;;;5018350;28;20147;-69
2022/06/19 13:14:27;;;;;;;12.20;7.60;;;;;;;;;;5016116;28;20040;-69
2022/06/19 13:17:21;;;;;;;18.67;7.55;;;;;;;;;;5019455;28;20046;-69
2022/06/19 13:19:59;;;;;;;19.80;7.70;;;;;;;;;;5037071;22;20048;-65
2022/06/19 13:23:01;;;;;;;13.10;7.57;;;;;;;;;;5037425;28;20136;-65
2022/06/19 13:26:00;;;;;;;13.65;7.55;;;;;;;;;;5037618;28;20495;-65
2022/06/19 13:28:43;;;;;;;12.02;7.03;;;;;;;;;;5035012;28;20075;-65
2022/06/19 13:31:36;;;;;;;19.98;7.60;;;;;;;;;;5038717;28;20060;-65
2022/06/19 13:34:13;;;;;;;13.48;6.97;;;;;;;;;;5038007;28;20495;-65
2022/06/19 13:37:01;;;;;;;16.20;6.70;;;;;;;;;;5037660;28;20045;-65
2022/06/19 13:39:37;;;;;;;13.70;6.68;;;;;;;;;;5039400;28;20110;-65
2022/06/19 13:42:43;;;;;;;17.40;6.72;;;;;;;;;;5040686;28;20116;-65
2022/06/19 13:45:21;;;;;;;15.15;7.35;;;;;;;;;;5029936;28;20065;-65
2022/06/19 13:47:54;;;;;;;14.80;7.03;;;;;;;;;;5040068;28;20184;-65
2022/06/19 13:50:35;;;;;;;17.85;6.90;;;;;;;;;;5036258;28;20037;-65
2022/06/19 13:53:09;;;;;;;16.38;7.50;;;;;;;;;;5037531;28;20104;-65
2022/06/19 13:55:43;;;;;;;18.83;7.13;;;;;;;;;;5034826;28;20507;-64
2022/06/19 13:58:20;;;;;;;16.38;6.43;;;;;;;;;;5034824;28;20071;-65
2022/06/19 14:00:50;;;;;;;12.85;6.25;;;;;;;;;;5037373;28;20029;-64
2022/06/19 14:03:22;;;;;;;15.55;6.60;;;;;;;;;;5042692;28;20040;-65
2022/06/19 14:05:51;;;;;;;17.38;6.93;;;;;;;;;;5043017;28;20041;-64
2022/06/19 14:08:36;;;;;;;14.35;7.15;;;;;;;;;;5036663;28;20033;-65
2022/06/19 14:11:19;;;;;;;15.63;7.15;;;;;;;;;;5041325;28;20036;-65
2022/06/19 14:13:59;;;;;;;13.70;6.50;;;;;;;;;;5032563;28;20034;-65
2022/06/19 14:16:48;;;;;;;12.23;6.53;;;;;;;;;;5035506;28;20036;-65
2022/06/19 14:19:19;;;;;;;14.85;6.53;;;;;;;;;;5041367;28;20040;-64
2022/06/19 14:22:03;;;;;;;12.68;7.00;;;;;;;;;;5046239;28;20044;-65
2022/06/19 14:24:39;;;;;;;19.20;7.07;;;;;;;;;;5039938;28;20037;-65
2022/06/19 14:27:26;;;;;;;12.90;6.47;;;;;;;;;;5042385;28;20040;-64
2022/06/19 14:29:59;;;;;;;15.93;6.38;;;;;;;;;;5042782;28;20038;-64
2022/06/19 14:32:43;;;;;;;11.68;5.85;;;;;;;;;;5044700;28;20407;-64
2022/06/19 14:35:08;;;;;;;15.02;6.68;;;;;;;;;;5036396;28;20517;-64
2022/06/19 14:37:52;;;;;;;14.35;6.70;;;;;;;;;;5040773;28;20106;-64
2022/06/19 14:40:21;;;;;;;15.82;6.57;;;;;;;;;;5038864;28;20888;-64
2022/06/19 14:42:49;;;;;;;12.55;6.85;;;;;;;;;;5040979;28;20135;-64
2022/06/19 14:45:19;;;;;;;13.27;6.60;;;;;;;;;;5040957;28;20069;-64
2022/06/19 14:48:29;;;;;;;16.05;6.82;;;;;;;;;;5041692;28;20036;-64
2022/06/19 14:51:35;;;;;;;14.07;7.53;;;;;;;;;;5032715;28;20119;-64
2022/06/19 14:54:38;;;;;;;14.60;7.30;;;;;;;;;;4998507;28;20533;-64
2022/06/19 14:57:22;;;;;;;15.57;6.85;;;;;;;;;;4999383;28;20189;-64
2022/06/19 14:59:52;;;;;;;9.70;6.35;;;;;;;;;;4988890;28;20446;-63
2022/06/19 15:02:24;;;;;;;16.90;7.40;;;;;;;;;;4999034;28;20421;-63
2022/06/19 15:05:21;;;;;;;14.20;7.35;;;;;;;;;;4995392;28;20055;-64
2022/06/19 15:07:50;;;;;;;15.73;7.10;;;;;;;;;;5004369;28;20053;-64
2022/06/19 15:10:26;;;;;;;15.98;7.20;;;;;;;;;;5000475;28;20049;-63
2022/06/19 15:13:06;;;;;;;14.55;6.85;;;;;;;;;;4995070;28;20044;-63
2022/06/19 15:15:36;;;;;;;13.43;6.97;;;;;;;;;;4996439;28;20041;-63